sensor_id;sensor_type;location;lat;lon;timestamp;temperature;humidity
53310;DHT22;39197;53.200;5.792;2022-09-03T00:01:50;18.20;93.70
53310;DHT22;39197;53.200;5.792;2022-09-03T00:04:31;18.20;93.70
53310;DHT22;39197;53.200;5.792;2022-09-03T00:07:10;18.20;93.80
53310;DHT22;39197;53.200;5.792;2022-09-03T00:09:45;18.20;93.80
53310;DHT22;39197;53.200;5.792;2022-09-03T00:12:22;18.20;93.90
53310;DHT22;39197;53.200;5.792;2022-09-03T00:14:56;18.10;93.90
53310;DHT22;39197;53.200;5.792;2022-09-03T00:17:29;18.10;94.00
53310;DHT22;39197;53.200;5.792;2022-09-03T00:20:04;18.00;94.00
53310;DHT22;39197;53.200;5.792;2022-09-03T00:22:41;18.00;94.20
53310;DHT22;39197;53.200;5.792;2022-09-03T00:25:13;18.00;94.20
53310;DHT22;39197;53.200;5.792;2022-09-03T00:27:41;17.90;94.30
53310;DHT22;39197;53.200;5.792;2022-09-03T00:30:10;17.90;94.30
53310;DHT22;39197;53.200;5.792;2022-09-03T00:33:04;17.90;94.40
53310;DHT22;39197;53.200;5.792;2022-09-03T00:35:42;17.90;94.50
53310;DHT22;39197;53.200;5.792;2022-09-03T00:38:07;17.90;94.50
53310;DHT22;39197;53.200;5.792;2022-09-03T00:40:36;17.80;94.60
53310;DHT22;39197;53.200;5.792;2022-09-03T00:43:21;17.80;94.70
53310;DHT22;39197;53.200;5.792;2022-09-03T00:47:03;17.80;94.80
53310;DHT22;39197;53.200;5.792;2022-09-03T00:52:24;17.70;95.20
53310;DHT22;39197;53.200;5.792;2022-09-03T00:55:11;17.70;95.10
53310;DHT22;39197;53.200;5.792;2022-09-03T01:00:21;17.60;95.30
53310;DHT22;39197;53.200;5.792;2022-09-03T01:03:08;17.60;95.50
53310;DHT22;39197;53.200;5.792;2022-09-03T01:06:06;17.50;95.50
53310;DHT22;39197;53.200;5.792;2022-09-03T01:14:09;17.50;95.80
53310;DHT22;39197;53.200;5.792;2022-09-03T01:16:49;17.40;95.90
53310;DHT22;39197;53.200;5.792;2022-09-03T01:19:41;17.40;95.90
53310;DHT22;39197;53.200;5.792;2022-09-03T01:22:21;17.30;95.90
53310;DHT22;39197;53.200;5.792;2022-09-03T01:28:09;17.20;96.10
53310;DHT22;39197;53.200;5.792;2022-09-03T01:30:39;17.30;96.10
53310;DHT22;39197;53.200;5.792;2022-09-03T01:33:34;17.20;96.10
53310;DHT22;39197;53.200;5.792;2022-09-03T01:36:20;17.20;96.40
53310;DHT22;39197;53.200;5.792;2022-09-03T01:39:03;17.20;96.40
53310;DHT22;39197;53.200;5.792;2022-09-03T01:41:40;17.10;96.50
53310;DHT22;39197;53.200;5.792;2022-09-03T01:50:02;17.10;96.90
53310;DHT22;39197;53.200;5.792;2022-09-03T01:53:30;17.10;96.80
53310;DHT22;39197;53.200;5.792;2022-09-03T01:56:30;17.00;97.20
53310;DHT22;39197;53.200;5.792;2022-09-03T01:59:20;17.00;97.10
53310;DHT22;39197;53.200;5.792;2022-09-03T02:02:08;17.00;97.40
53310;DHT22;39197;53.200;5.792;2022-09-03T02:04:37;16.90;97.20
53310;DHT22;39197;53.200;5.792;2022-09-03T02:07:02;16.90;97.20
53310;DHT22;39197;53.200;5.792;2022-09-03T02:09:29;16.90;97.30
53310;DHT22;39197;53.200;5.792;2022-09-03T02:12:01;16.90;97.40
53310;DHT22;39197;53.200;5.792;2022-09-03T02:14:29;16.90;97.60
53310;DHT22;39197;53.200;5.792;2022-09-03T02:16:57;16.80;97.50
53310;DHT22;39197;53.200;5.792;2022-09-03T02:19:26;16.80;97.60
53310;DHT22;39197;53.200;5.792;2022-09-03T02:21:54;16.80;97.70
53310;DHT22;39197;53.200;5.792;2022-09-03T02:24:20;16.80;97.70
53310;DHT22;39197;53.200;5.792;2022-09-03T02:26:46;16.80;97.90
53310;DHT22;39197;53.200;5.792;2022-09-03T02:29:13;16.70;98.00
53310;DHT22;39197;53.200;5.792;2022-09-03T02:31:39;16.70;98.10
53310;DHT22;39197;53.200;5.792;2022-09-03T02:34:05;16.70;98.20
53310;DHT22;39197;53.200;5.792;2022-09-03T02:36:36;16.70;98.60
53310;DHT22;39197;53.200;5.792;2022-09-03T02:39:03;16.70;98.40
53310;DHT22;39197;53.200;5.792;2022-09-03T02:41:29;16.70;98.50
53310;DHT22;39197;53.200;5.792;2022-09-03T02:44:16;16.70;98.60
53310;DHT22;39197;53.200;5.792;2022-09-03T02:47:01;16.70;98.70
53310;DHT22;39197;53.200;5.792;2022-09-03T02:49:27;16.60;98.80
53310;DHT22;39197;53.200;5.792;2022-09-03T02:51:58;16.60;98.70
53310;DHT22;39197;53.200;5.792;2022-09-03T02:54:30;16.60;98.90
53310;DHT22;39197;53.200;5.792;2022-09-03T02:56:58;16.50;99.00
53310;DHT22;39197;53.200;5.792;2022-09-03T02:59:24;16.50;99.20
53310;DHT22;39197;53.200;5.792;2022-09-03T03:01:53;16.50;99.30
53310;DHT22;39197;53.200;5.792;2022-09-03T03:04:18;16.40;99.40
53310;DHT22;39197;53.200;5.792;2022-09-03T03:06:44;16.40;99.50
53310;DHT22;39197;53.200;5.792;2022-09-03T03:09:10;16.40;99.60
53310;DHT22;39197;53.200;5.792;2022-09-03T03:11:35;16.40;99.70
53310;DHT22;39197;53.200;5.792;2022-09-03T03:14:01;16.30;99.90
53310;DHT22;39197;53.200;5.792;2022-09-03T03:16:27;16.30;99.90
53310;DHT22;39197;53.200;5.792;2022-09-03T03:18:55;16.30;99.90
53310;DHT22;39197;53.200;5.792;2022-09-03T03:21:21;16.30;99.90
53310;DHT22;39197;53.200;5.792;2022-09-03T03:23:46;16.20;99.90
53310;DHT22;39197;53.200;5.792;2022-09-03T03:26:15;16.30;99.90
53310;DHT22;39197;53.200;5.792;2022-09-03T03:28:43;16.20;99.90
53310;DHT22;39197;53.200;5.792;2022-09-03T03:31:10;16.20;99.90
53310;DHT22;39197;53.200;5.792;2022-09-03T03:33:37;16.20;99.90
53310;DHT22;39197;53.200;5.792;2022-09-03T03:36:08;16.20;99.90
53310;DHT22;39197;53.200;5.792;2022-09-03T03:38:34;16.20;99.90
53310;DHT22;39197;53.200;5.792;2022-09-03T03:41:07;16.20;99.90
53310;DHT22;39197;53.200;5.792;2022-09-03T03:43:32;16.20;99.90
53310;DHT22;39197;53.200;5.792;2022-09-03T03:45:58;16.20;99.90
53310;DHT22;39197;53.200;5.792;2022-09-03T03:48:24;16.20;99.90
53310;DHT22;39197;53.200;5.792;2022-09-03T03:50:50;16.20;99.90
53310;DHT22;39197;53.200;5.792;2022-09-03T03:53:16;16.20;99.90
53310;DHT22;39197;53.200;5.792;2022-09-03T03:55:42;16.20;99.90
53310;DHT22;39197;53.200;5.792;2022-09-03T03:58:07;16.20;99.90
53310;DHT22;39197;53.200;5.792;2022-09-03T04:00:33;16.20;99.90
53310;DHT22;39197;53.200;5.792;2022-09-03T04:03:01;16.20;99.90
53310;DHT22;39197;53.200;5.792;2022-09-03T04:05:27;16.20;99.90
53310;DHT22;39197;53.200;5.792;2022-09-03T04:07:52;16.20;99.90
53310;DHT22;39197;53.200;5.792;2022-09-03T04:10:18;16.20;99.90
53310;DHT22;39197;53.200;5.792;2022-09-03T04:12:43;16.20;99.90
53310;DHT22;39197;53.200;5.792;2022-09-03T04:15:09;16.20;99.90
53310;DHT22;39197;53.200;5.792;2022-09-03T04:17:35;16.20;99.90
53310;DHT22;39197;53.200;5.792;2022-09-03T04:20:01;16.20;99.90
53310;DHT22;39197;53.200;5.792;2022-09-03T04:22:27;16.20;99.90
53310;DHT22;39197;53.200;5.792;2022-09-03T04:24:53;16.20;99.90
53310;DHT22;39197;53.200;5.792;2022-09-03T04:27:19;16.10;99.90
53310;DHT22;39197;53.200;5.792;2022-09-03T04:29:44;16.20;99.90
53310;DHT22;39197;53.200;5.792;2022-09-03T04:32:10;16.10;99.90
53310;DHT22;39197;53.200;5.792;2022-09-03T04:34:54;16.10;99.90
53310;DHT22;39197;53.200;5.792;2022-09-03T04:37:20;16.10;99.90
53310;DHT22;39197;53.200;5.792;2022-09-03T04:39:45;16.10;99.90
53310;DHT22;39197;53.200;5.792;2022-09-03T04:42:11;16.10;99.90
53310;DHT22;39197;53.200;5.792;2022-09-03T04:44:36;16.10;99.90
53310;DHT22;39197;53.200;5.792;2022-09-03T04:47:04;16.00;99.90
53310;DHT22;39197;53.200;5.792;2022-09-03T04:49:29;16.10;99.90
53310;DHT22;39197;53.200;5.792;2022-09-03T04:51:55;16.00;99.90
53310;DHT22;39197;53.200;5.792;2022-09-03T04:54:21;16.10;99.90
53310;DHT22;39197;53.200;5.792;2022-09-03T04:56:46;16.00;99.90
53310;DHT22;39197;53.200;5.792;2022-09-03T04:59:12;16.00;99.90
53310;DHT22;39197;53.200;5.792;2022-09-03T05:01:39;16.00;99.90
53310;DHT22;39197;53.200;5.792;2022-09-03T05:04:05;16.00;99.90
53310;DHT22;39197;53.200;5.792;2022-09-03T05:06:32;16.00;99.90
53310;DHT22;39197;53.200;5.792;2022-09-03T05:08:59;16.00;99.90
53310;DHT22;39197;53.200;5.792;2022-09-03T05:11:25;16.00;99.90
53310;DHT22;39197;53.200;5.792;2022-09-03T05:13:53;16.00;99.90
53310;DHT22;39197;53.200;5.792;2022-09-03T05:16:20;16.00;99.90
53310;DHT22;39197;53.200;5.792;2022-09-03T05:18:46;16.00;99.90
53310;DHT22;39197;53.200;5.792;2022-09-03T05:21:16;16.00;99.90
53310;DHT22;39197;53.200;5.792;2022-09-03T05:23:44;16.00;99.90
53310;DHT22;39197;53.200;5.792;2022-09-03T05:26:15;16.00;99.90
53310;DHT22;39197;53.200;5.792;2022-09-03T05:28:42;16.00;99.90
53310;DHT22;39197;53.200;5.792;2022-09-03T05:31:10;15.90;99.90
53310;DHT22;39197;53.200;5.792;2022-09-03T05:33:38;15.90;99.90
53310;DHT22;39197;53.200;5.792;2022-09-03T05:36:06;15.90;99.90
53310;DHT22;39197;53.200;5.792;2022-09-03T05:38:32;16.00;99.90
53310;DHT22;39197;53.200;5.792;2022-09-03T05:40:59;16.00;99.90
53310;DHT22;39197;53.200;5.792;2022-09-03T05:43:26;16.00;99.90
53310;DHT22;39197;53.200;5.792;2022-09-03T05:46:03;16.00;99.90
53310;DHT22;39197;53.200;5.792;2022-09-03T05:48:30;16.10;99.90
53310;DHT22;39197;53.200;5.792;2022-09-03T05:51:00;16.00;99.90
53310;DHT22;39197;53.200;5.792;2022-09-03T05:53:27;16.00;99.90
53310;DHT22;39197;53.200;5.792;2022-09-03T05:55:57;16.10;99.90
53310;DHT22;39197;53.200;5.792;2022-09-03T05:58:24;16.10;99.90
53310;DHT22;39197;53.200;5.792;2022-09-03T06:00:50;16.10;99.90
53310;DHT22;39197;53.200;5.792;2022-09-03T06:03:16;16.20;99.90
53310;DHT22;39197;53.200;5.792;2022-09-03T06:05:49;16.20;99.90
53310;DHT22;39197;53.200;5.792;2022-09-03T06:08:15;16.20;99.90
53310;DHT22;39197;53.200;5.792;2022-09-03T06:10:41;16.20;99.90
53310;DHT22;39197;53.200;5.792;2022-09-03T06:13:06;16.20;99.90
53310;DHT22;39197;53.200;5.792;2022-09-03T06:15:32;16.10;99.90
53310;DHT22;39197;53.200;5.792;2022-09-03T06:17:57;16.10;99.90
53310;DHT22;39197;53.200;5.792;2022-09-03T06:20:23;16.10;99.90
53310;DHT22;39197;53.200;5.792;2022-09-03T06:22:52;16.00;99.90
53310;DHT22;39197;53.200;5.792;2022-09-03T06:25:18;16.10;99.90
53310;DHT22;39197;53.200;5.792;2022-09-03T06:27:44;16.10;99.90
53310;DHT22;39197;53.200;5.792;2022-09-03T06:30:10;16.00;99.90
53310;DHT22;39197;53.200;5.792;2022-09-03T06:32:43;16.00;99.90
53310;DHT22;39197;53.200;5.792;2022-09-03T06:35:09;16.10;99.90
53310;DHT22;39197;53.200;5.792;2022-09-03T06:37:39;16.10;99.90
53310;DHT22;39197;53.200;5.792;2022-09-03T06:40:05;16.20;99.90
53310;DHT22;39197;53.200;5.792;2022-09-03T06:42:32;16.30;99.90
53310;DHT22;39197;53.200;5.792;2022-09-03T06:44:59;16.30;99.90
53310;DHT22;39197;53.200;5.792;2022-09-03T06:47:24;16.40;99.90
53310;DHT22;39197;53.200;5.792;2022-09-03T06:49:50;16.40;99.90
53310;DHT22;39197;53.200;5.792;2022-09-03T06:52:16;16.40;99.90
53310;DHT22;39197;53.200;5.792;2022-09-03T06:54:41;16.50;99.90
53310;DHT22;39197;53.200;5.792;2022-09-03T06:57:07;16.50;99.90
53310;DHT22;39197;53.200;5.792;2022-09-03T06:59:32;16.60;99.90
53310;DHT22;39197;53.200;5.792;2022-09-03T07:01:58;16.70;99.90
53310;DHT22;39197;53.200;5.792;2022-09-03T07:04:25;17.10;99.90
53310;DHT22;39197;53.200;5.792;2022-09-03T07:06:51;17.80;99.90
53310;DHT22;39197;53.200;5.792;2022-09-03T07:09:17;18.50;99.90
53310;DHT22;39197;53.200;5.792;2022-09-03T07:11:43;19.00;99.90
53310;DHT22;39197;53.200;5.792;2022-09-03T07:14:12;19.40;99.90
53310;DHT22;39197;53.200;5.792;2022-09-03T07:16:38;19.60;99.60
53310;DHT22;39197;53.200;5.792;2022-09-03T07:19:06;19.70;99.30
53310;DHT22;39197;53.200;5.792;2022-09-03T07:21:34;20.00;98.80
53310;DHT22;39197;53.200;5.792;2022-09-03T07:24:04;20.20;98.50
53310;DHT22;39197;53.200;5.792;2022-09-03T07:26:35;20.40;98.10
53310;DHT22;39197;53.200;5.792;2022-09-03T07:29:03;20.60;97.80
53310;DHT22;39197;53.200;5.792;2022-09-03T07:31:31;20.90;97.30
53310;DHT22;39197;53.200;5.792;2022-09-03T07:34:09;21.10;96.90
53310;DHT22;39197;53.200;5.792;2022-09-03T07:36:37;21.00;96.40
53310;DHT22;39197;53.200;5.792;2022-09-03T07:39:03;21.10;96.50
53310;DHT22;39197;53.200;5.792;2022-09-03T07:41:29;21.10;96.30
53310;DHT22;39197;53.200;5.792;2022-09-03T07:43:58;21.20;96.00
53310;DHT22;39197;53.200;5.792;2022-09-03T07:46:25;21.30;96.00
53310;DHT22;39197;53.200;5.792;2022-09-03T07:48:54;21.40;95.80
53310;DHT22;39197;53.200;5.792;2022-09-03T07:51:25;21.70;95.50
53310;DHT22;39197;53.200;5.792;2022-09-03T07:53:52;21.80;95.00
53310;DHT22;39197;53.200;5.792;2022-09-03T07:56:18;21.90;95.00
53310;DHT22;39197;53.200;5.792;2022-09-03T07:58:44;22.00;94.80
53310;DHT22;39197;53.200;5.792;2022-09-03T08:01:14;22.00;94.70
53310;DHT22;39197;53.200;5.792;2022-09-03T08:03:45;22.40;94.40
53310;DHT22;39197;53.200;5.792;2022-09-03T08:06:11;22.30;94.10
53310;DHT22;39197;53.200;5.792;2022-09-03T08:08:37;22.20;94.10
53310;DHT22;39197;53.200;5.792;2022-09-03T08:11:05;22.30;94.20
53310;DHT22;39197;53.200;5.792;2022-09-03T08:13:42;22.50;94.00
53310;DHT22;39197;53.200;5.792;2022-09-03T08:16:10;22.90;93.30
53310;DHT22;39197;53.200;5.792;2022-09-03T08:18:37;22.90;93.40
53310;DHT22;39197;53.200;5.792;2022-09-03T08:21:08;22.70;93.30
53310;DHT22;39197;53.200;5.792;2022-09-03T08:23:37;23.00;93.20
53310;DHT22;39197;53.200;5.792;2022-09-03T08:26:03;23.30;93.20
53310;DHT22;39197;53.200;5.792;2022-09-03T08:28:29;23.30;93.10
53310;DHT22;39197;53.200;5.792;2022-09-03T08:30:55;23.40;92.60
53310;DHT22;39197;53.200;5.792;2022-09-03T08:33:21;23.20;92.70
53310;DHT22;39197;53.200;5.792;2022-09-03T08:36:13;23.40;92.50
53310;DHT22;39197;53.200;5.792;2022-09-03T08:38:40;23.60;92.20
53310;DHT22;39197;53.200;5.792;2022-09-03T08:41:16;23.70;92.20
53310;DHT22;39197;53.200;5.792;2022-09-03T08:44:08;24.10;91.70
53310;DHT22;39197;53.200;5.792;2022-09-03T08:47:17;24.20;91.20
53310;DHT22;39197;53.200;5.792;2022-09-03T08:52:59;24.60;91.10
53310;DHT22;39197;53.200;5.792;2022-09-03T08:55:34;24.80;90.90
53310;DHT22;39197;53.200;5.792;2022-09-03T08:58:07;25.20;90.80
53310;DHT22;39197;53.200;5.792;2022-09-03T09:18:11;26.70;86.80
53310;DHT22;39197;53.200;5.792;2022-09-03T09:21:01;26.60;86.60
53310;DHT22;39197;53.200;5.792;2022-09-03T09:23:50;27.00;85.20
53310;DHT22;39197;53.200;5.792;2022-09-03T09:26:18;27.00;84.70
53310;DHT22;39197;53.200;5.792;2022-09-03T09:28:50;27.10;85.60
53310;DHT22;39197;53.200;5.792;2022-09-03T09:31:18;27.60;85.10
53310;DHT22;39197;53.200;5.792;2022-09-03T09:33:44;27.20;84.50
53310;DHT22;39197;53.200;5.792;2022-09-03T09:36:15;27.50;84.40
53310;DHT22;39197;53.200;5.792;2022-09-03T09:38:43;27.70;83.50
53310;DHT22;39197;53.200;5.792;2022-09-03T09:41:18;27.80;82.90
53310;DHT22;39197;53.200;5.792;2022-09-03T09:43:45;28.00;82.30
53310;DHT22;39197;53.200;5.792;2022-09-03T09:46:36;28.10;82.40
53310;DHT22;39197;53.200;5.792;2022-09-03T09:49:20;28.00;82.00
53310;DHT22;39197;53.200;5.792;2022-09-03T09:51:46;28.10;81.90
53310;DHT22;39197;53.200;5.792;2022-09-03T09:54:15;28.30;82.00
53310;DHT22;39197;53.200;5.792;2022-09-03T09:56:45;28.50;81.00
53310;DHT22;39197;53.200;5.792;2022-09-03T09:59:12;28.00;80.90
53310;DHT22;39197;53.200;5.792;2022-09-03T10:01:41;27.60;81.90
53310;DHT22;39197;53.200;5.792;2022-09-03T10:06:35;28.20;81.30
53310;DHT22;39197;53.200;5.792;2022-09-03T10:09:23;28.50;81.40
53310;DHT22;39197;53.200;5.792;2022-09-03T10:12:01;28.60;81.10
53310;DHT22;39197;53.200;5.792;2022-09-03T10:17:56;29.00;79.10
53310;DHT22;39197;53.200;5.792;2022-09-03T10:20:25;28.90;79.60
53310;DHT22;39197;53.200;5.792;2022-09-03T10:23:04;28.80;79.70
53310;DHT22;39197;53.200;5.792;2022-09-03T10:25:50;28.90;79.50
53310;DHT22;39197;53.200;5.792;2022-09-03T10:28:23;29.80;78.50
53310;DHT22;39197;53.200;5.792;2022-09-03T10:34:21;30.30;76.90
53310;DHT22;39197;53.200;5.792;2022-09-03T10:39:56;30.40;76.70
53310;DHT22;39197;53.200;5.792;2022-09-03T10:42:34;30.90;76.50
53310;DHT22;39197;53.200;5.792;2022-09-03T10:45:17;30.90;75.50
53310;DHT22;39197;53.200;5.792;2022-09-03T10:48:33;30.90;74.80
53310;DHT22;39197;53.200;5.792;2022-09-03T10:53:26;30.30;76.10
53310;DHT22;39197;53.200;5.792;2022-09-03T11:01:44;30.50;74.90
53310;DHT22;39197;53.200;5.792;2022-09-03T11:06:58;30.10;75.10
53310;DHT22;39197;53.200;5.792;2022-09-03T11:10:00;30.40;74.40
53310;DHT22;39197;53.200;5.792;2022-09-03T11:12:34;30.30;73.60
53310;DHT22;39197;53.200;5.792;2022-09-03T11:17:46;30.70;74.10
53310;DHT22;39197;53.200;5.792;2022-09-03T11:20:21;30.60;73.20
53310;DHT22;39197;53.200;5.792;2022-09-03T11:22:49;30.70;73.50
53310;DHT22;39197;53.200;5.792;2022-09-03T11:25:18;30.80;73.20
53310;DHT22;39197;53.200;5.792;2022-09-03T11:33:32;31.10;71.80
53310;DHT22;39197;53.200;5.792;2022-09-03T11:36:00;31.00;72.10
53310;DHT22;39197;53.200;5.792;2022-09-03T11:38:29;30.80;71.10
53310;DHT22;39197;53.200;5.792;2022-09-03T11:41:03;30.60;70.90
53310;DHT22;39197;53.200;5.792;2022-09-03T11:43:32;30.30;70.40
53310;DHT22;39197;53.200;5.792;2022-09-03T11:46:10;30.20;70.20
53310;DHT22;39197;53.200;5.792;2022-09-03T11:53:55;31.00;70.00
53310;DHT22;39197;53.200;5.792;2022-09-03T11:56:22;31.30;69.70
53310;DHT22;39197;53.200;5.792;2022-09-03T11:59:04;31.20;68.90
53310;DHT22;39197;53.200;5.792;2022-09-03T12:01:31;31.00;68.80
53310;DHT22;39197;53.200;5.792;2022-09-03T12:04:00;30.70;69.70
53310;DHT22;39197;53.200;5.792;2022-09-03T12:15:26;30.60;67.00
53310;DHT22;39197;53.200;5.792;2022-09-03T12:17:51;30.60;67.20
53310;DHT22;39197;53.200;5.792;2022-09-03T12:20:37;30.60;67.10
53310;DHT22;39197;53.200;5.792;2022-09-03T12:23:03;30.60;67.20
53310;DHT22;39197;53.200;5.792;2022-09-03T12:25:28;30.90;67.30
53310;DHT22;39197;53.200;5.792;2022-09-03T12:27:54;31.30;66.70
53310;DHT22;39197;53.200;5.792;2022-09-03T12:30:23;31.40;65.60
53310;DHT22;39197;53.200;5.792;2022-09-03T12:32:50;31.30;65.20
53310;DHT22;39197;53.200;5.792;2022-09-03T12:35:22;31.10;66.00
53310;DHT22;39197;53.200;5.792;2022-09-03T12:37:51;30.90;66.00
53310;DHT22;39197;53.200;5.792;2022-09-03T12:40:26;30.80;66.10
53310;DHT22;39197;53.200;5.792;2022-09-03T12:42:52;30.90;66.50
53310;DHT22;39197;53.200;5.792;2022-09-03T12:45:24;31.10;65.70
53310;DHT22;39197;53.200;5.792;2022-09-03T12:47:50;30.90;65.60
53310;DHT22;39197;53.200;5.792;2022-09-03T12:50:22;30.90;64.90
53310;DHT22;39197;53.200;5.792;2022-09-03T12:52:53;30.50;65.10
53310;DHT22;39197;53.200;5.792;2022-09-03T12:58:18;30.30;65.80
53310;DHT22;39197;53.200;5.792;2022-09-03T13:04:36;30.60;65.50
53310;DHT22;39197;53.200;5.792;2022-09-03T13:07:02;31.10;65.40
53310;DHT22;39197;53.200;5.792;2022-09-03T13:09:30;31.10;64.70
53310;DHT22;39197;53.200;5.792;2022-09-03T13:11:57;31.00;64.80
53310;DHT22;39197;53.200;5.792;2022-09-03T13:14:44;30.90;64.80
53310;DHT22;39197;53.200;5.792;2022-09-03T13:17:29;30.90;64.60
53310;DHT22;39197;53.200;5.792;2022-09-03T13:33:53;31.70;63.20
53310;DHT22;39197;53.200;5.792;2022-09-03T13:36:27;31.50;62.60
53310;DHT22;39197;53.200;5.792;2022-09-03T13:38:58;31.40;63.00
53310;DHT22;39197;53.200;5.792;2022-09-03T13:41:47;31.50;63.00
53310;DHT22;39197;53.200;5.792;2022-09-03T13:44:21;31.20;63.10
53310;DHT22;39197;53.200;5.792;2022-09-03T13:46:57;31.20;63.00
53310;DHT22;39197;53.200;5.792;2022-09-03T13:55:32;31.30;63.60
53310;DHT22;39197;53.200;5.792;2022-09-03T14:01:08;31.60;62.90
53310;DHT22;39197;53.200;5.792;2022-09-03T14:03:47;32.10;62.40
53310;DHT22;39197;53.200;5.792;2022-09-03T14:06:42;31.80;61.70
53310;DHT22;39197;53.200;5.792;2022-09-03T14:09:41;31.60;61.70
53310;DHT22;39197;53.200;5.792;2022-09-03T14:12:24;31.50;61.90
53310;DHT22;39197;53.200;5.792;2022-09-03T14:15:09;31.70;62.30
53310;DHT22;39197;53.200;5.792;2022-09-03T14:26:28;31.70;61.70
53310;DHT22;39197;53.200;5.792;2022-09-03T14:29:06;31.70;61.80
53310;DHT22;39197;53.200;5.792;2022-09-03T14:37:49;31.50;61.20
53310;DHT22;39197;53.200;5.792;2022-09-03T14:43:10;31.20;61.60
53310;DHT22;39197;53.200;5.792;2022-09-03T14:54:08;30.40;62.40
53310;DHT22;39197;53.200;5.792;2022-09-03T15:02:35;30.50;62.80
53310;DHT22;39197;53.200;5.792;2022-09-03T15:07:40;31.00;62.60
53310;DHT22;39197;53.200;5.792;2022-09-03T15:15:35;31.10;61.80
53310;DHT22;39197;53.200;5.792;2022-09-03T15:21:14;31.50;62.30
53310;DHT22;39197;53.200;5.792;2022-09-03T15:23:55;31.50;62.00
53310;DHT22;39197;53.200;5.792;2022-09-03T15:31:58;31.50;60.70
53310;DHT22;39197;53.200;5.792;2022-09-03T15:36:59;31.50;61.90
53310;DHT22;39197;53.200;5.792;2022-09-03T15:39:35;31.20;62.00
53310;DHT22;39197;53.200;5.792;2022-09-03T15:42:09;31.40;62.30
53310;DHT22;39197;53.200;5.792;2022-09-03T15:44:41;31.20;62.70
53310;DHT22;39197;53.200;5.792;2022-09-03T15:50:16;31.50;62.50
53310;DHT22;39197;53.200;5.792;2022-09-03T15:53:14;31.60;62.30
53310;DHT22;39197;53.200;5.792;2022-09-03T15:55:44;31.60;62.00
53310;DHT22;39197;53.200;5.792;2022-09-03T15:58:31;31.70;62.20
53310;DHT22;39197;53.200;5.792;2022-09-03T16:03:48;31.60;61.70
53310;DHT22;39197;53.200;5.792;2022-09-03T16:06:56;31.80;62.00
53310;DHT22;39197;53.200;5.792;2022-09-03T16:17:37;31.80;62.00
53310;DHT22;39197;53.200;5.792;2022-09-03T16:20:12;31.40;62.10
53310;DHT22;39197;53.200;5.792;2022-09-03T16:22:50;31.40;62.40
53310;DHT22;39197;53.200;5.792;2022-09-03T16:25:23;31.70;62.40
53310;DHT22;39197;53.200;5.792;2022-09-03T16:27:59;31.50;62.20
53310;DHT22;39197;53.200;5.792;2022-09-03T16:30:42;31.30;62.70
53310;DHT22;39197;53.200;5.792;2022-09-03T16:33:41;31.00;62.80
53310;DHT22;39197;53.200;5.792;2022-09-03T16:39:02;30.80;63.10
53310;DHT22;39197;53.200;5.792;2022-09-03T16:44:26;30.70;63.30
53310;DHT22;39197;53.200;5.792;2022-09-03T16:58:49;29.60;63.10
53310;DHT22;39197;53.200;5.792;2022-09-03T17:04:23;28.90;64.00
53310;DHT22;39197;53.200;5.792;2022-09-03T17:07:17;28.90;64.30
53310;DHT22;39197;53.200;5.792;2022-09-03T17:10:22;28.80;64.50
53310;DHT22;39197;53.200;5.792;2022-09-03T17:15:51;28.20;65.30
53310;DHT22;39197;53.200;5.792;2022-09-03T17:21:43;28.00;66.00
53310;DHT22;39197;53.200;5.792;2022-09-03T17:24:28;27.80;66.70
53310;DHT22;39197;53.200;5.792;2022-09-03T17:27:28;27.60;67.60
53310;DHT22;39197;53.200;5.792;2022-09-03T17:30:19;27.40;68.90
53310;DHT22;39197;53.200;5.792;2022-09-03T17:35:45;26.60;70.40
53310;DHT22;39197;53.200;5.792;2022-09-03T17:43:59;25.90;72.10
53310;DHT22;39197;53.200;5.792;2022-09-03T17:46:38;25.60;72.10
53310;DHT22;39197;53.200;5.792;2022-09-03T17:49:15;25.40;72.70
53310;DHT22;39197;53.200;5.792;2022-09-03T17:51:49;25.20;72.80
53310;DHT22;39197;53.200;5.792;2022-09-03T17:56:59;24.80;73.80
53310;DHT22;39197;53.200;5.792;2022-09-03T18:05:27;24.40;74.70
53310;DHT22;39197;53.200;5.792;2022-09-03T18:11:08;24.10;76.20
53310;DHT22;39197;53.200;5.792;2022-09-03T18:16:27;23.80;76.80
53310;DHT22;39197;53.200;5.792;2022-09-03T18:21:32;23.50;77.80
53310;DHT22;39197;53.200;5.792;2022-09-03T18:24:33;23.30;77.90
53310;DHT22;39197;53.200;5.792;2022-09-03T18:30:21;23.10;78.50
53310;DHT22;39197;53.200;5.792;2022-09-03T18:33:05;23.00;78.90
53310;DHT22;39197;53.200;5.792;2022-09-03T18:35:50;22.90;79.00
53310;DHT22;39197;53.200;5.792;2022-09-03T18:38:38;22.90;79.60
53310;DHT22;39197;53.200;5.792;2022-09-03T18:44:32;22.70;80.10
53310;DHT22;39197;53.200;5.792;2022-09-03T18:50:23;22.40;81.40
53310;DHT22;39197;53.200;5.792;2022-09-03T18:53:32;22.40;81.70
53310;DHT22;39197;53.200;5.792;2022-09-03T19:06:16;22.00;83.50
53310;DHT22;39197;53.200;5.792;2022-09-03T19:09:06;22.00;83.90
53310;DHT22;39197;53.200;5.792;2022-09-03T19:15:23;21.80;84.50
53310;DHT22;39197;53.200;5.792;2022-09-03T19:18:23;21.70;84.50
53310;DHT22;39197;53.200;5.792;2022-09-03T19:23:59;21.60;84.80
53310;DHT22;39197;53.200;5.792;2022-09-03T19:30:00;21.40;85.50
53310;DHT22;39197;53.200;5.792;2022-09-03T19:35:48;21.30;86.30
53310;DHT22;39197;53.200;5.792;2022-09-03T19:38:45;21.20;86.30
53310;DHT22;39197;53.200;5.792;2022-09-03T19:41:54;21.10;86.90
53310;DHT22;39197;53.200;5.792;2022-09-03T19:50:41;21.00;87.20
53310;DHT22;39197;53.200;5.792;2022-09-03T19:53:28;20.90;87.30
53310;DHT22;39197;53.200;5.792;2022-09-03T19:56:27;20.90;87.70
53310;DHT22;39197;53.200;5.792;2022-09-03T19:59:20;20.90;88.00
53310;DHT22;39197;53.200;5.792;2022-09-03T20:02:06;20.80;88.20
53310;DHT22;39197;53.200;5.792;2022-09-03T20:05:00;20.80;88.20
53310;DHT22;39197;53.200;5.792;2022-09-03T20:07:46;20.70;88.40
53310;DHT22;39197;53.200;5.792;2022-09-03T20:10:33;20.60;88.70
53310;DHT22;39197;53.200;5.792;2022-09-03T20:13:10;20.50;88.70
53310;DHT22;39197;53.200;5.792;2022-09-03T20:18:48;20.40;89.10
53310;DHT22;39197;53.200;5.792;2022-09-03T20:21:41;20.50;89.10
53310;DHT22;39197;53.200;5.792;2022-09-03T20:33:04;20.40;89.60
53310;DHT22;39197;53.200;5.792;2022-09-03T20:41:23;20.30;89.90
53310;DHT22;39197;53.200;5.792;2022-09-03T20:44:10;20.20;90.20
53310;DHT22;39197;53.200;5.792;2022-09-03T20:49:28;20.20;90.30
53310;DHT22;39197;53.200;5.792;2022-09-03T20:52:11;20.20;90.30
53310;DHT22;39197;53.200;5.792;2022-09-03T20:58:00;20.20;90.60
53310;DHT22;39197;53.200;5.792;2022-09-03T21:06:08;20.00;90.80
53310;DHT22;39197;53.200;5.792;2022-09-03T21:14:21;19.90;91.10
53310;DHT22;39197;53.200;5.792;2022-09-03T21:17:14;20.00;91.00
53310;DHT22;39197;53.200;5.792;2022-09-03T21:19:56;19.90;91.40